Аэропорт: Ленкорань. Ленкорань

ICAO: UBBL

METAR:
2022-06-26 12:00:00
UBBL 261200Z 00000KT 9999 SCT100 27/19 Q1003 NOSIG RMK MT OP
METAR:
2022-06-26 11:28:00
TAF UBBL 261128Z 2612/2712 14008KT 9999 SCT040 SCT100 TX27/2612Z TN20/2701Z TEMPO 2612/2618 18008KT FEW040CB BKN080 BECMG 2618/2620 28006KT TEMPO 2620/2705 33008KT BECMG 2705/2707 14010KT